sensor_id;sensor_type;location;lat;lon;timestamp;temperature;humidity
9730;DHT22;4904;49.152;11.004;2023-03-20T00:00:20;9.10;99.90
9730;DHT22;4904;49.152;11.004;2023-03-20T00:02:48;9.10;99.90
9730;DHT22;4904;49.152;11.004;2023-03-20T00:05:17;9.20;99.90
9730;DHT22;4904;49.152;11.004;2023-03-20T00:07:46;9.30;99.90
9730;DHT22;4904;49.152;11.004;2023-03-20T00:10:16;9.30;99.90
9730;DHT22;4904;49.152;11.004;2023-03-20T00:12:45;9.40;99.90
9730;DHT22;4904;49.152;11.004;2023-03-20T00:15:26;9.60;99.90
9730;DHT22;4904;49.152;11.004;2023-03-20T00:17:55;9.50;99.90
9730;DHT22;4904;49.152;11.004;2023-03-20T00:20:22;9.10;99.90
9730;DHT22;4904;49.152;11.004;2023-03-20T00:22:49;8.80;99.90
9730;DHT22;4904;49.152;11.004;2023-03-20T00:25:20;8.60;99.90
9730;DHT22;4904;49.152;11.004;2023-03-20T00:27:47;8.80;99.90
9730;DHT22;4904;49.152;11.004;2023-03-20T00:30:24;8.70;99.90
9730;DHT22;4904;49.152;11.004;2023-03-20T00:32:54;8.80;99.90
9730;DHT22;4904;49.152;11.004;2023-03-20T00:35:24;8.80;99.90
9730;DHT22;4904;49.152;11.004;2023-03-20T00:37:53;8.90;99.90
9730;DHT22;4904;49.152;11.004;2023-03-20T00:40:23;9.00;99.90
9730;DHT22;4904;49.152;11.004;2023-03-20T00:42:58;9.00;99.90
9730;DHT22;4904;49.152;11.004;2023-03-20T00:45:27;9.10;99.90
9730;DHT22;4904;49.152;11.004;2023-03-20T00:47:55;9.10;99.90
9730;DHT22;4904;49.152;11.004;2023-03-20T00:50:24;9.10;99.90
9730;DHT22;4904;49.152;11.004;2023-03-20T00:52:52;8.90;99.90
9730;DHT22;4904;49.152;11.004;2023-03-20T00:55:22;9.00;99.90
9730;DHT22;4904;49.152;11.004;2023-03-20T00:57:52;9.10;99.90
9730;DHT22;4904;49.152;11.004;2023-03-20T01:00:33;9.10;99.90
9730;DHT22;4904;49.152;11.004;2023-03-20T01:03:09;9.10;99.90
9730;DHT22;4904;49.152;11.004;2023-03-20T01:05:37;9.10;99.90
9730;DHT22;4904;49.152;11.004;2023-03-20T01:08:09;9.20;99.90
9730;DHT22;4904;49.152;11.004;2023-03-20T01:10:38;9.20;99.90
9730;DHT22;4904;49.152;11.004;2023-03-20T01:13:12;9.20;99.90
9730;DHT22;4904;49.152;11.004;2023-03-20T01:15:41;9.20;99.90
9730;DHT22;4904;49.152;11.004;2023-03-20T01:18:10;9.30;99.90
9730;DHT22;4904;49.152;11.004;2023-03-20T01:20:38;9.20;99.90
9730;DHT22;4904;49.152;11.004;2023-03-20T01:23:05;9.10;99.90
9730;DHT22;4904;49.152;11.004;2023-03-20T01:25:32;9.00;99.90
9730;DHT22;4904;49.152;11.004;2023-03-20T01:28:01;9.00;99.90
9730;DHT22;4904;49.152;11.004;2023-03-20T01:30:30;8.80;99.90
9730;DHT22;4904;49.152;11.004;2023-03-20T01:32:59;8.60;99.90
9730;DHT22;4904;49.152;11.004;2023-03-20T01:35:27;8.50;99.90
9730;DHT22;4904;49.152;11.004;2023-03-20T01:37:54;8.40;99.90
9730;DHT22;4904;49.152;11.004;2023-03-20T01:40:31;8.50;99.90
9730;DHT22;4904;49.152;11.004;2023-03-20T01:43:00;8.70;99.90
9730;DHT22;4904;49.152;11.004;2023-03-20T01:45:31;8.70;99.90
9730;DHT22;4904;49.152;11.004;2023-03-20T01:48:01;8.70;99.90
9730;DHT22;4904;49.152;11.004;2023-03-20T01:50:30;8.70;99.90
9730;DHT22;4904;49.152;11.004;2023-03-20T01:53:03;8.70;99.90
9730;DHT22;4904;49.152;11.004;2023-03-20T01:55:32;8.70;99.90
9730;DHT22;4904;49.152;11.004;2023-03-20T01:58:05;8.70;99.90
9730;DHT22;4904;49.152;11.004;2023-03-20T02:00:34;8.70;99.90
9730;DHT22;4904;49.152;11.004;2023-03-20T02:03:04;8.60;99.90
9730;DHT22;4904;49.152;11.004;2023-03-20T02:05:32;8.40;99.90
9730;DHT22;4904;49.152;11.004;2023-03-20T02:08:08;8.20;99.90
9730;DHT22;4904;49.152;11.004;2023-03-20T02:10:37;8.00;99.90
9730;DHT22;4904;49.152;11.004;2023-03-20T02:13:06;8.10;99.90
9730;DHT22;4904;49.152;11.004;2023-03-20T02:15:50;8.10;99.90
9730;DHT22;4904;49.152;11.004;2023-03-20T02:18:18;8.20;99.90
9730;DHT22;4904;49.152;11.004;2023-03-20T02:20:54;8.10;99.90
9730;DHT22;4904;49.152;11.004;2023-03-20T02:24:01;8.20;99.90
9730;DHT22;4904;49.152;11.004;2023-03-20T02:26:44;8.20;99.90
9730;DHT22;4904;49.152;11.004;2023-03-20T02:29:34;8.20;99.90
9730;DHT22;4904;49.152;11.004;2023-03-20T02:38:43;8.60;99.90
9730;DHT22;4904;49.152;11.004;2023-03-20T02:41:20;8.80;99.90
9730;DHT22;4904;49.152;11.004;2023-03-20T02:43:53;8.80;99.90
9730;DHT22;4904;49.152;11.004;2023-03-20T02:46:27;8.90;99.90
9730;DHT22;4904;49.152;11.004;2023-03-20T02:49:00;8.90;99.90
9730;DHT22;4904;49.152;11.004;2023-03-20T02:51:34;9.00;99.90
9730;DHT22;4904;49.152;11.004;2023-03-20T02:54:08;9.00;99.90
9730;DHT22;4904;49.152;11.004;2023-03-20T02:56:44;9.00;99.90
9730;DHT22;4904;49.152;11.004;2023-03-20T02:59:20;9.10;99.90
9730;DHT22;4904;49.152;11.004;2023-03-20T03:01:51;9.10;99.90
9730;DHT22;4904;49.152;11.004;2023-03-20T03:04:23;9.10;99.90
9730;DHT22;4904;49.152;11.004;2023-03-20T03:06:52;9.10;99.90
9730;DHT22;4904;49.152;11.004;2023-03-20T03:09:23;9.10;99.90
9730;DHT22;4904;49.152;11.004;2023-03-20T03:11:53;9.00;99.90
9730;DHT22;4904;49.152;11.004;2023-03-20T03:14:28;8.90;99.90
9730;DHT22;4904;49.152;11.004;2023-03-20T03:16:57;8.90;99.90
9730;DHT22;4904;49.152;11.004;2023-03-20T03:19:27;8.60;99.90
9730;DHT22;4904;49.152;11.004;2023-03-20T03:21:54;8.40;99.90
9730;DHT22;4904;49.152;11.004;2023-03-20T03:24:27;8.30;99.90
9730;DHT22;4904;49.152;11.004;2023-03-20T03:26:58;8.30;99.90
9730;DHT22;4904;49.152;11.004;2023-03-20T03:29:29;8.30;99.90
9730;DHT22;4904;49.152;11.004;2023-03-20T03:31:57;8.40;99.90
9730;DHT22;4904;49.152;11.004;2023-03-20T03:34:24;8.40;99.90
9730;DHT22;4904;49.152;11.004;2023-03-20T03:36:56;8.50;99.90
9730;DHT22;4904;49.152;11.004;2023-03-20T03:39:35;8.60;99.90
9730;DHT22;4904;49.152;11.004;2023-03-20T03:42:07;8.60;99.90
9730;DHT22;4904;49.152;11.004;2023-03-20T03:44:40;8.70;99.90
9730;DHT22;4904;49.152;11.004;2023-03-20T03:47:11;8.70;99.90
9730;DHT22;4904;49.152;11.004;2023-03-20T03:49:43;8.80;99.90
9730;DHT22;4904;49.152;11.004;2023-03-20T03:52:14;8.80;99.90
9730;DHT22;4904;49.152;11.004;2023-03-20T03:54:46;8.80;99.90
9730;DHT22;4904;49.152;11.004;2023-03-20T03:57:16;8.90;99.90
9730;DHT22;4904;49.152;11.004;2023-03-20T03:59:46;8.90;99.90
9730;DHT22;4904;49.152;11.004;2023-03-20T04:02:16;9.10;99.90
9730;DHT22;4904;49.152;11.004;2023-03-20T04:04:47;9.00;99.90
9730;DHT22;4904;49.152;11.004;2023-03-20T04:07:15;9.10;99.90
9730;DHT22;4904;49.152;11.004;2023-03-20T04:09:43;9.10;99.90
9730;DHT22;4904;49.152;11.004;2023-03-20T04:12:30;9.20;99.90
9730;DHT22;4904;49.152;11.004;2023-03-20T04:14:58;9.20;99.90
9730;DHT22;4904;49.152;11.004;2023-03-20T04:17:25;9.20;99.90
9730;DHT22;4904;49.152;11.004;2023-03-20T04:19:52;9.20;99.90
9730;DHT22;4904;49.152;11.004;2023-03-20T04:22:18;9.20;99.90
9730;DHT22;4904;49.152;11.004;2023-03-20T04:24:47;9.30;99.90
9730;DHT22;4904;49.152;11.004;2023-03-20T04:27:14;9.30;99.90
9730;DHT22;4904;49.152;11.004;2023-03-20T04:29:41;9.20;99.90
9730;DHT22;4904;49.152;11.004;2023-03-20T04:32:09;9.20;99.90
9730;DHT22;4904;49.152;11.004;2023-03-20T04:34:36;8.90;99.90
9730;DHT22;4904;49.152;11.004;2023-03-20T04:37:03;8.80;99.90
9730;DHT22;4904;49.152;11.004;2023-03-20T04:39:33;8.60;99.90
9730;DHT22;4904;49.152;11.004;2023-03-20T04:42:01;8.50;99.90
9730;DHT22;4904;49.152;11.004;2023-03-20T04:44:28;8.50;99.90
9730;DHT22;4904;49.152;11.004;2023-03-20T04:46:55;8.60;99.90
9730;DHT22;4904;49.152;11.004;2023-03-20T04:49:23;8.50;99.90
9730;DHT22;4904;49.152;11.004;2023-03-20T04:51:49;8.50;99.90
9730;DHT22;4904;49.152;11.004;2023-03-20T04:54:16;8.40;99.90
9730;DHT22;4904;49.152;11.004;2023-03-20T04:56:43;8.40;99.90
9730;DHT22;4904;49.152;11.004;2023-03-20T04:59:12;8.30;99.90
9730;DHT22;4904;49.152;11.004;2023-03-20T05:01:39;8.20;99.90
9730;DHT22;4904;49.152;11.004;2023-03-20T05:04:06;8.20;99.90
9730;DHT22;4904;49.152;11.004;2023-03-20T05:06:33;8.10;99.90
9730;DHT22;4904;49.152;11.004;2023-03-20T05:09:00;8.10;99.90
9730;DHT22;4904;49.152;11.004;2023-03-20T05:11:27;8.10;99.90
9730;DHT22;4904;49.152;11.004;2023-03-20T05:13:54;8.20;99.90
9730;DHT22;4904;49.152;11.004;2023-03-20T05:16:22;8.20;99.90
9730;DHT22;4904;49.152;11.004;2023-03-20T05:18:49;8.20;99.90
9730;DHT22;4904;49.152;11.004;2023-03-20T05:21:16;8.10;99.90
9730;DHT22;4904;49.152;11.004;2023-03-20T05:23:43;8.20;99.90
9730;DHT22;4904;49.152;11.004;2023-03-20T05:26:10;8.10;99.90
9730;DHT22;4904;49.152;11.004;2023-03-20T05:28:37;8.10;99.90
9730;DHT22;4904;49.152;11.004;2023-03-20T05:31:04;8.10;99.90
9730;DHT22;4904;49.152;11.004;2023-03-20T05:33:32;8.10;99.90
9730;DHT22;4904;49.152;11.004;2023-03-20T05:35:59;8.20;99.90
9730;DHT22;4904;49.152;11.004;2023-03-20T05:38:26;8.10;99.90
9730;DHT22;4904;49.152;11.004;2023-03-20T05:40:55;8.10;99.90
9730;DHT22;4904;49.152;11.004;2023-03-20T05:43:23;8.10;99.90
9730;DHT22;4904;49.152;11.004;2023-03-20T05:45:50;8.20;99.90
9730;DHT22;4904;49.152;11.004;2023-03-20T05:48:16;8.30;99.90
9730;DHT22;4904;49.152;11.004;2023-03-20T05:50:44;8.20;99.90
9730;DHT22;4904;49.152;11.004;2023-03-20T05:53:11;8.20;99.90
9730;DHT22;4904;49.152;11.004;2023-03-20T05:55:38;8.20;99.90
9730;DHT22;4904;49.152;11.004;2023-03-20T05:58:06;8.20;99.90
9730;DHT22;4904;49.152;11.004;2023-03-20T06:00:33;8.20;99.90
9730;DHT22;4904;49.152;11.004;2023-03-20T06:03:00;8.10;99.90
9730;DHT22;4904;49.152;11.004;2023-03-20T06:05:26;8.20;99.90
9730;DHT22;4904;49.152;11.004;2023-03-20T06:07:54;8.20;99.90
9730;DHT22;4904;49.152;11.004;2023-03-20T06:10:21;8.30;99.90
9730;DHT22;4904;49.152;11.004;2023-03-20T06:12:48;8.30;99.90
9730;DHT22;4904;49.152;11.004;2023-03-20T06:15:15;8.30;99.90
9730;DHT22;4904;49.152;11.004;2023-03-20T06:17:42;8.20;99.90
9730;DHT22;4904;49.152;11.004;2023-03-20T06:20:10;8.20;99.90
9730;DHT22;4904;49.152;11.004;2023-03-20T06:22:37;8.30;99.90
9730;DHT22;4904;49.152;11.004;2023-03-20T06:25:06;8.40;99.90
9730;DHT22;4904;49.152;11.004;2023-03-20T06:27:33;8.40;99.90
9730;DHT22;4904;49.152;11.004;2023-03-20T06:30:00;8.50;99.90
9730;DHT22;4904;49.152;11.004;2023-03-20T06:32:27;8.50;99.90
9730;DHT22;4904;49.152;11.004;2023-03-20T06:34:53;8.50;99.90
9730;DHT22;4904;49.152;11.004;2023-03-20T06:37:20;8.50;99.90
9730;DHT22;4904;49.152;11.004;2023-03-20T06:39:47;8.50;99.90
9730;DHT22;4904;49.152;11.004;2023-03-20T06:42:15;8.50;99.90
9730;DHT22;4904;49.152;11.004;2023-03-20T06:44:43;8.50;99.90
9730;DHT22;4904;49.152;11.004;2023-03-20T06:47:09;8.50;99.90
9730;DHT22;4904;49.152;11.004;2023-03-20T06:49:36;8.60;99.90
9730;DHT22;4904;49.152;11.004;2023-03-20T06:52:03;8.70;99.90
9730;DHT22;4904;49.152;11.004;2023-03-20T06:54:31;8.70;99.90
9730;DHT22;4904;49.152;11.004;2023-03-20T06:56:57;8.70;99.90
9730;DHT22;4904;49.152;11.004;2023-03-20T06:59:26;8.70;99.90
9730;DHT22;4904;49.152;11.004;2023-03-20T07:01:52;8.70;99.90
9730;DHT22;4904;49.152;11.004;2023-03-20T07:04:19;8.70;99.90
9730;DHT22;4904;49.152;11.004;2023-03-20T07:06:46;8.70;99.90
9730;DHT22;4904;49.152;11.004;2023-03-20T07:09:13;8.80;99.90
9730;DHT22;4904;49.152;11.004;2023-03-20T07:11:42;8.90;99.90
9730;DHT22;4904;49.152;11.004;2023-03-20T07:14:09;8.90;99.90
9730;DHT22;4904;49.152;11.004;2023-03-20T07:16:37;8.90;99.90
9730;DHT22;4904;49.152;11.004;2023-03-20T07:19:04;8.90;99.90
9730;DHT22;4904;49.152;11.004;2023-03-20T07:21:31;9.00;99.90
9730;DHT22;4904;49.152;11.004;2023-03-20T07:23:58;9.00;99.90
9730;DHT22;4904;49.152;11.004;2023-03-20T07:26:25;9.00;99.90
9730;DHT22;4904;49.152;11.004;2023-03-20T07:28:52;9.00;99.90
9730;DHT22;4904;49.152;11.004;2023-03-20T07:31:21;8.80;99.90
9730;DHT22;4904;49.152;11.004;2023-03-20T07:33:49;8.90;99.90
9730;DHT22;4904;49.152;11.004;2023-03-20T07:36:16;8.90;99.90
9730;DHT22;4904;49.152;11.004;2023-03-20T07:38:43;8.90;99.90
9730;DHT22;4904;49.152;11.004;2023-03-20T07:41:10;8.90;99.90
9730;DHT22;4904;49.152;11.004;2023-03-20T07:43:37;8.90;99.90
9730;DHT22;4904;49.152;11.004;2023-03-20T07:46:05;8.90;99.90
9730;DHT22;4904;49.152;11.004;2023-03-20T07:48:32;9.00;99.90
9730;DHT22;4904;49.152;11.004;2023-03-20T07:51:01;9.00;99.90
9730;DHT22;4904;49.152;11.004;2023-03-20T07:53:28;9.00;99.90
9730;DHT22;4904;49.152;11.004;2023-03-20T07:55:55;9.00;99.90
9730;DHT22;4904;49.152;11.004;2023-03-20T07:58:22;9.10;99.90
9730;DHT22;4904;49.152;11.004;2023-03-20T08:00:49;9.10;99.90
9730;DHT22;4904;49.152;11.004;2023-03-20T08:03:16;9.10;99.90
9730;DHT22;4904;49.152;11.004;2023-03-20T08:05:43;9.10;99.90
9730;DHT22;4904;49.152;11.004;2023-03-20T08:08:11;9.10;99.90
9730;DHT22;4904;49.152;11.004;2023-03-20T08:10:38;9.10;99.90
9730;DHT22;4904;49.152;11.004;2023-03-20T08:13:04;9.10;99.90
9730;DHT22;4904;49.152;11.004;2023-03-20T08:15:31;9.10;99.90
9730;DHT22;4904;49.152;11.004;2023-03-20T08:17:58;9.20;99.90
9730;DHT22;4904;49.152;11.004;2023-03-20T08:20:26;9.20;99.90
9730;DHT22;4904;49.152;11.004;2023-03-20T08:22:52;9.20;99.90
9730;DHT22;4904;49.152;11.004;2023-03-20T08:25:21;9.30;99.90
9730;DHT22;4904;49.152;11.004;2023-03-20T08:27:48;9.30;99.90
9730;DHT22;4904;49.152;11.004;2023-03-20T08:30:15;9.40;99.90
9730;DHT22;4904;49.152;11.004;2023-03-20T08:32:42;9.40;99.90
9730;DHT22;4904;49.152;11.004;2023-03-20T08:35:09;9.40;99.90
9730;DHT22;4904;49.152;11.004;2023-03-20T08:37:36;9.40;99.90
9730;DHT22;4904;49.152;11.004;2023-03-20T08:40:04;9.40;99.90
9730;DHT22;4904;49.152;11.004;2023-03-20T08:42:34;9.40;99.90
9730;DHT22;4904;49.152;11.004;2023-03-20T08:45:01;9.40;99.90
9730;DHT22;4904;49.152;11.004;2023-03-20T08:47:27;9.50;99.90
9730;DHT22;4904;49.152;11.004;2023-03-20T08:49:54;9.50;99.90
9730;DHT22;4904;49.152;11.004;2023-03-20T08:52:21;9.50;99.90
9730;DHT22;4904;49.152;11.004;2023-03-20T08:54:48;9.50;99.90
9730;DHT22;4904;49.152;11.004;2023-03-20T08:57:15;9.50;99.90
9730;DHT22;4904;49.152;11.004;2023-03-20T08:59:44;9.60;99.90
9730;DHT22;4904;49.152;11.004;2023-03-20T09:02:11;9.60;99.90
9730;DHT22;4904;49.152;11.004;2023-03-20T09:04:38;9.70;99.90
9730;DHT22;4904;49.152;11.004;2023-03-20T09:07:05;9.70;99.90
9730;DHT22;4904;49.152;11.004;2023-03-20T09:09:32;9.70;99.90
9730;DHT22;4904;49.152;11.004;2023-03-20T09:11:59;9.70;99.90
9730;DHT22;4904;49.152;11.004;2023-03-20T09:14:27;9.80;99.90
9730;DHT22;4904;49.152;11.004;2023-03-20T09:16:55;9.80;99.90
9730;DHT22;4904;49.152;11.004;2023-03-20T09:19:22;9.80;99.90
9730;DHT22;4904;49.152;11.004;2023-03-20T09:21:49;9.90;99.90
9730;DHT22;4904;49.152;11.004;2023-03-20T09:24:16;9.90;99.90
9730;DHT22;4904;49.152;11.004;2023-03-20T09:26:43;9.90;99.90
9730;DHT22;4904;49.152;11.004;2023-03-20T09:29:10;9.90;99.90
9730;DHT22;4904;49.152;11.004;2023-03-20T09:31:36;9.80;99.90
9730;DHT22;4904;49.152;11.004;2023-03-20T09:34:05;9.90;99.90
9730;DHT22;4904;49.152;11.004;2023-03-20T09:36:32;9.90;99.90
9730;DHT22;4904;49.152;11.004;2023-03-20T09:38:59;10.00;99.90
9730;DHT22;4904;49.152;11.004;2023-03-20T09:41:26;10.00;99.90
9730;DHT22;4904;49.152;11.004;2023-03-20T09:44:09;10.20;99.90
9730;DHT22;4904;49.152;11.004;2023-03-20T09:46:58;10.30;99.90
9730;DHT22;4904;49.152;11.004;2023-03-20T09:49:39;10.30;99.90
9730;DHT22;4904;49.152;11.004;2023-03-20T09:52:17;10.40;99.90
9730;DHT22;4904;49.152;11.004;2023-03-20T09:54:48;10.40;99.90
9730;DHT22;4904;49.152;11.004;2023-03-20T09:57:21;10.50;99.90
9730;DHT22;4904;49.152;11.004;2023-03-20T09:59:49;10.60;99.90
9730;DHT22;4904;49.152;11.004;2023-03-20T10:02:20;10.60;99.90
9730;DHT22;4904;49.152;11.004;2023-03-20T10:04:51;10.70;99.90
9730;DHT22;4904;49.152;11.004;2023-03-20T10:07:18;10.60;99.90
9730;DHT22;4904;49.152;11.004;2023-03-20T10:09:46;10.80;99.90
9730;DHT22;4904;49.152;11.004;2023-03-20T10:12:26;10.90;99.90
9730;DHT22;4904;49.152;11.004;2023-03-20T10:15:00;11.00;99.90
9730;DHT22;4904;49.152;11.004;2023-03-20T10:17:39;11.10;99.90
9730;DHT22;4904;49.152;11.004;2023-03-20T10:20:16;11.10;99.90
9730;DHT22;4904;49.152;11.004;2023-03-20T10:22:49;11.00;99.90
9730;DHT22;4904;49.152;11.004;2023-03-20T10:25:22;11.10;99.90
9730;DHT22;4904;49.152;11.004;2023-03-20T10:27:54;11.10;99.90
9730;DHT22;4904;49.152;11.004;2023-03-20T10:30:29;11.00;99.90
9730;DHT22;4904;49.152;11.004;2023-03-20T10:33:06;10.90;99.90
9730;DHT22;4904;49.152;11.004;2023-03-20T10:35:41;10.90;99.90
9730;DHT22;4904;49.152;11.004;2023-03-20T10:38:16;11.00;99.90
9730;DHT22;4904;49.152;11.004;2023-03-20T10:40:47;11.20;99.90
9730;DHT22;4904;49.152;11.004;2023-03-20T10:43:17;11.30;99.90
9730;DHT22;4904;49.152;11.004;2023-03-20T10:45:46;11.40;99.90
9730;DHT22;4904;49.152;11.004;2023-03-20T10:48:20;11.60;99.90
9730;DHT22;4904;49.152;11.004;2023-03-20T10:50:53;11.60;99.90
9730;DHT22;4904;49.152;11.004;2023-03-20T10:53:29;11.70;99.90
9730;DHT22;4904;49.152;11.004;2023-03-20T10:56:00;11.60;99.90
9730;DHT22;4904;49.152;11.004;2023-03-20T10:58:30;11.80;99.90
9730;DHT22;4904;49.152;11.004;2023-03-20T11:00:59;11.80;99.90
9730;DHT22;4904;49.152;11.004;2023-03-20T11:03:28;11.80;99.90
9730;DHT22;4904;49.152;11.004;2023-03-20T11:06:00;12.00;99.90
9730;DHT22;4904;49.152;11.004;2023-03-20T11:08:36;12.10;99.90
9730;DHT22;4904;49.152;11.004;2023-03-20T11:11:04;12.10;99.90
9730;DHT22;4904;49.152;11.004;2023-03-20T11:13:33;12.00;99.90
9730;DHT22;4904;49.152;11.004;2023-03-20T11:16:16;12.00;99.90
9730;DHT22;4904;49.152;11.004;2023-03-20T11:18:43;11.90;99.90
9730;DHT22;4904;49.152;11.004;2023-03-20T11:21:17;12.10;99.90
9730;DHT22;4904;49.152;11.004;2023-03-20T11:23:44;12.30;99.90
9730;DHT22;4904;49.152;11.004;2023-03-20T11:26:13;12.30;99.90
9730;DHT22;4904;49.152;11.004;2023-03-20T11:28:46;12.20;99.90
9730;DHT22;4904;49.152;11.004;2023-03-20T11:31:19;12.10;99.90
9730;DHT22;4904;49.152;11.004;2023-03-20T11:33:51;12.20;99.90
9730;DHT22;4904;49.152;11.004;2023-03-20T11:36:25;12.30;99.90
9730;DHT22;4904;49.152;11.004;2023-03-20T11:39:01;12.00;99.90
9730;DHT22;4904;49.152;11.004;2023-03-20T11:41:31;11.80;99.90
9730;DHT22;4904;49.152;11.004;2023-03-20T11:43:58;11.70;99.90
9730;DHT22;4904;49.152;11.004;2023-03-20T11:46:25;11.70;99.90
9730;DHT22;4904;49.152;11.004;2023-03-20T11:49:04;11.70;99.90
9730;DHT22;4904;49.152;11.004;2023-03-20T11:51:33;11.70;99.90
9730;DHT22;4904;49.152;11.004;2023-03-20T11:54:02;11.80;99.90
9730;DHT22;4904;49.152;11.004;2023-03-20T11:56:32;12.00;99.90
9730;DHT22;4904;49.152;11.004;2023-03-20T11:59:03;11.90;99.90
9730;DHT22;4904;49.152;11.004;2023-03-20T12:01:40;12.00;99.90
9730;DHT22;4904;49.152;11.004;2023-03-20T12:04:13;11.90;99.90
9730;DHT22;4904;49.152;11.004;2023-03-20T12:06:50;12.10;99.90
9730;DHT22;4904;49.152;11.004;2023-03-20T12:09:26;12.20;99.90
9730;DHT22;4904;49.152;11.004;2023-03-20T12:12:00;12.10;99.90
9730;DHT22;4904;49.152;11.004;2023-03-20T12:14:32;11.90;99.90
9730;DHT22;4904;49.152;11.004;2023-03-20T12:17:14;11.90;99.90
9730;DHT22;4904;49.152;11.004;2023-03-20T12:19:47;11.90;99.90
9730;DHT22;4904;49.152;11.004;2023-03-20T12:22:21;12.00;99.90
9730;DHT22;4904;49.152;11.004;2023-03-20T12:24:54;12.00;99.90
9730;DHT22;4904;49.152;11.004;2023-03-20T12:27:26;12.20;99.90
9730;DHT22;4904;49.152;11.004;2023-03-20T12:29:59;12.20;99.90
9730;DHT22;4904;49.152;11.004;2023-03-20T12:32:30;12.10;99.90
9730;DHT22;4904;49.152;11.004;2023-03-20T12:35:08;12.10;99.90
9730;DHT22;4904;49.152;11.004;2023-03-20T12:37:38;12.10;99.90
9730;DHT22;4904;49.152;11.004;2023-03-20T12:40:10;12.10;99.90
9730;DHT22;4904;49.152;11.004;2023-03-20T12:42:47;12.10;99.90
9730;DHT22;4904;49.152;11.004;2023-03-20T12:45:19;12.20;99.90
9730;DHT22;4904;49.152;11.004;2023-03-20T12:50:56;12.00;99.90
9730;DHT22;4904;49.152;11.004;2023-03-20T12:53:39;12.10;99.90
9730;DHT22;4904;49.152;11.004;2023-03-20T12:56:16;12.10;99.90
9730;DHT22;4904;49.152;11.004;2023-03-20T12:58:52;12.20;99.90
9730;DHT22;4904;49.152;11.004;2023-03-20T13:01:26;12.20;99.90
9730;DHT22;4904;49.152;11.004;2023-03-20T13:06:51;12.30;99.90
9730;DHT22;4904;49.152;11.004;2023-03-20T13:09:41;12.40;99.90
9730;DHT22;4904;49.152;11.004;2023-03-20T13:12:18;12.40;99.90
9730;DHT22;4904;49.152;11.004;2023-03-20T13:14:51;12.50;99.90
9730;DHT22;4904;49.152;11.004;2023-03-20T13:17:24;12.50;99.90
9730;DHT22;4904;49.152;11.004;2023-03-20T13:20:05;12.60;99.90
9730;DHT22;4904;49.152;11.004;2023-03-20T13:22:36;12.70;99.90
9730;DHT22;4904;49.152;11.004;2023-03-20T13:25:18;12.40;99.90
9730;DHT22;4904;49.152;11.004;2023-03-20T13:27:50;12.30;99.90
9730;DHT22;4904;49.152;11.004;2023-03-20T13:30:24;12.60;99.90
9730;DHT22;4904;49.152;11.004;2023-03-20T13:32:57;12.60;99.90
9730;DHT22;4904;49.152;11.004;2023-03-20T13:35:36;12.60;99.90
9730;DHT22;4904;49.152;11.004;2023-03-20T13:38:11;12.50;99.90
9730;DHT22;4904;49.152;11.004;2023-03-20T13:40:42;12.60;99.90
9730;DHT22;4904;49.152;11.004;2023-03-20T13:43:20;12.60;99.90
9730;DHT22;4904;49.152;11.004;2023-03-20T13:46:01;12.60;99.90
9730;DHT22;4904;49.152;11.004;2023-03-20T13:48:33;12.60;99.90
9730;DHT22;4904;49.152;11.004;2023-03-20T13:51:09;12.60;99.90
9730;DHT22;4904;49.152;11.004;2023-03-20T13:53:47;12.70;99.90
9730;DHT22;4904;49.152;11.004;2023-03-20T13:56:27;12.80;99.90
9730;DHT22;4904;49.152;11.004;2023-03-20T14:01:51;12.50;99.90
9730;DHT22;4904;49.152;11.004;2023-03-20T14:04:23;12.20;99.90
9730;DHT22;4904;49.152;11.004;2023-03-20T14:06:52;12.10;99.90
9730;DHT22;4904;49.152;11.004;2023-03-20T14:09:31;12.00;99.90
9730;DHT22;4904;49.152;11.004;2023-03-20T14:12:02;11.90;99.90
9730;DHT22;4904;49.152;11.004;2023-03-20T14:14:31;11.90;99.90
9730;DHT22;4904;49.152;11.004;2023-03-20T14:17:06;11.90;99.90
9730;DHT22;4904;49.152;11.004;2023-03-20T14:19:36;11.90;99.90
9730;DHT22;4904;49.152;11.004;2023-03-20T14:22:04;11.80;99.90
9730;DHT22;4904;49.152;11.004;2023-03-20T14:24:35;11.80;99.90
9730;DHT22;4904;49.152;11.004;2023-03-20T14:27:04;11.70;99.90
9730;DHT22;4904;49.152;11.004;2023-03-20T14:29:34;11.70;99.90
9730;DHT22;4904;49.152;11.004;2023-03-20T14:32:22;11.70;99.90
9730;DHT22;4904;49.152;11.004;2023-03-20T14:34:59;11.70;99.90
9730;DHT22;4904;49.152;11.004;2023-03-20T14:37:32;11.70;99.90
9730;DHT22;4904;49.152;11.004;2023-03-20T14:40:05;11.80;99.90
9730;DHT22;4904;49.152;11.004;2023-03-20T14:42:46;11.90;99.90
9730;DHT22;4904;49.152;11.004;2023-03-20T14:45:29;12.00;99.90
9730;DHT22;4904;49.152;11.004;2023-03-20T14:48:01;12.20;99.90
9730;DHT22;4904;49.152;11.004;2023-03-20T14:50:32;12.30;99.90
9730;DHT22;4904;49.152;11.004;2023-03-20T14:53:12;12.30;99.90
9730;DHT22;4904;49.152;11.004;2023-03-20T14:55:50;12.30;99.90
9730;DHT22;4904;49.152;11.004;2023-03-20T14:58:52;12.30;99.90
9730;DHT22;4904;49.152;11.004;2023-03-20T15:01:45;12.40;99.90
9730;DHT22;4904;49.152;11.004;2023-03-20T15:04:37;12.20;99.90
9730;DHT22;4904;49.152;11.004;2023-03-20T15:07:10;12.10;99.90
9730;DHT22;4904;49.152;11.004;2023-03-20T15:09:42;12.00;99.90
9730;DHT22;4904;49.152;11.004;2023-03-20T15:12:11;11.90;99.90
9730;DHT22;4904;49.152;11.004;2023-03-20T15:14:46;11.90;99.90
9730;DHT22;4904;49.152;11.004;2023-03-20T15:17:19;11.80;99.90
9730;DHT22;4904;49.152;11.004;2023-03-20T15:19:46;11.70;99.90
9730;DHT22;4904;49.152;11.004;2023-03-20T15:22:15;11.70;99.90
9730;DHT22;4904;49.152;11.004;2023-03-20T15:24:51;11.60;99.90
9730;DHT22;4904;49.152;11.004;2023-03-20T15:27:18;11.60;99.90
9730;DHT22;4904;49.152;11.004;2023-03-20T15:29:50;11.50;99.90
9730;DHT22;4904;49.152;11.004;2023-03-20T15:32:17;11.40;99.90
9730;DHT22;4904;49.152;11.004;2023-03-20T15:34:46;11.40;99.90
9730;DHT22;4904;49.152;11.004;2023-03-20T15:37:15;11.40;99.90
9730;DHT22;4904;49.152;11.004;2023-03-20T15:39:44;11.40;99.90
9730;DHT22;4904;49.152;11.004;2023-03-20T15:42:13;11.40;99.90
9730;DHT22;4904;49.152;11.004;2023-03-20T15:44:41;11.40;99.90
9730;DHT22;4904;49.152;11.004;2023-03-20T15:47:13;11.40;99.90
9730;DHT22;4904;49.152;11.004;2023-03-20T15:49:49;11.40;99.90
9730;DHT22;4904;49.152;11.004;2023-03-20T15:52:21;11.40;99.90
9730;DHT22;4904;49.152;11.004;2023-03-20T15:54:50;11.40;99.90
9730;DHT22;4904;49.152;11.004;2023-03-20T15:57:20;11.40;99.90
9730;DHT22;4904;49.152;11.004;2023-03-20T15:59:50;11.40;99.90
9730;DHT22;4904;49.152;11.004;2023-03-20T16:02:18;11.30;99.90
9730;DHT22;4904;49.152;11.004;2023-03-20T16:04:48;11.30;99.90
9730;DHT22;4904;49.152;11.004;2023-03-20T16:07:20;11.30;99.90
9730;DHT22;4904;49.152;11.004;2023-03-20T16:09:49;11.30;99.90
9730;DHT22;4904;49.152;11.004;2023-03-20T16:12:17;11.20;99.90
9730;DHT22;4904;49.152;11.004;2023-03-20T16:14:46;11.10;99.90
9730;DHT22;4904;49.152;11.004;2023-03-20T16:17:13;11.10;99.90
9730;DHT22;4904;49.152;11.004;2023-03-20T16:19:42;11.10;99.90
9730;DHT22;4904;49.152;11.004;2023-03-20T16:22:16;11.10;99.90
9730;DHT22;4904;49.152;11.004;2023-03-20T16:24:45;11.10;99.90
9730;DHT22;4904;49.152;11.004;2023-03-20T16:27:19;11.00;99.90
9730;DHT22;4904;49.152;11.004;2023-03-20T16:29:50;11.00;99.90
9730;DHT22;4904;49.152;11.004;2023-03-20T16:32:22;11.00;99.90